createdAt,value
2018-07-19T00:01:28.931Z,56.20
2018-07-19T00:03:57.707Z,56.50
2018-07-19T00:08:54.853Z,56.40
2018-07-19T00:11:23.534Z,57.10
2018-07-19T00:13:52.570Z,56.50
2018-07-19T00:16:21.257Z,57.30
2018-07-19T00:18:50.056Z,57.80
2018-07-19T00:23:47.334Z,56.90
2018-07-19T00:26:16.011Z,58.70
2018-07-19T00:28:44.754Z,58.70
2018-07-19T00:31:13.459Z,58.70
2018-07-19T00:33:42.180Z,58.70
2018-07-19T00:36:12.824Z,59.90
2018-07-19T00:38:41.767Z,59.30
2018-07-19T00:41:10.535Z,59.20
2018-07-19T00:43:39.236Z,58.40
2018-07-19T00:46:08.065Z,58.70
2018-07-19T00:48:36.785Z,58.50
2018-07-19T00:51:05.772Z,58.20
2018-07-19T00:53:34.570Z,58.30
2018-07-19T00:56:03.294Z,58.00
2018-07-19T00:58:31.970Z,58.60
2018-07-19T01:01:00.786Z,58.60
2018-07-19T01:05:57.953Z,58.70
2018-07-19T01:08:28.474Z,58.70
2018-07-19T01:10:57.214Z,58.80
2018-07-19T01:13:25.924Z,59.20
2018-07-19T01:15:54.695Z,60.20
2018-07-19T01:18:23.521Z,60.00
2018-07-19T01:20:52.263Z,60.40
2018-07-19T01:23:21.103Z,60.70
2018-07-19T01:25:49.791Z,60.30
2018-07-19T01:28:18.464Z,60.40
2018-07-19T01:30:47.135Z,61.10
2018-07-19T01:33:17.568Z,62.40
2018-07-19T01:35:46.180Z,62.40
2018-07-19T01:38:15.670Z,62.40
2018-07-19T01:40:44.393Z,62.30
2018-07-19T01:43:14.488Z,63.10
2018-07-19T01:45:43.244Z,62.90
2018-07-19T01:48:11.927Z,63.10
2018-07-19T01:50:40.675Z,62.60
2018-07-19T01:53:09.440Z,62.60
2018-07-19T01:55:38.258Z,62.20
2018-07-19T01:58:06.975Z,62.50
2018-07-19T02:00:35.690Z,63.10
2018-07-19T02:03:04.343Z,63.00
2018-07-19T02:05:33.093Z,62.90
2018-07-19T02:08:01.860Z,63.10
2018-07-19T02:12:58.859Z,63.40
2018-07-19T02:15:28.187Z,63.00
2018-07-19T02:17:56.887Z,62.70
2018-07-19T02:20:25.566Z,62.70
2018-07-19T02:22:54.286Z,62.70
2018-07-19T02:27:52.626Z,61.70
2018-07-19T02:30:21.403Z,62.00
2018-07-19T02:32:50.614Z,62.30
2018-07-19T02:35:19.238Z,62.70
2018-07-19T02:37:50.249Z,63.20
2018-07-19T02:40:18.877Z,63.50
2018-07-19T02:42:49.419Z,63.90
2018-07-19T02:45:18.224Z,63.70
2018-07-19T02:50:17.201Z,67.70
2018-07-19T02:52:45.884Z,67.40
2018-07-19T02:55:14.596Z,67.60
2018-07-19T02:57:43.335Z,67.70
2018-07-19T03:00:12.062Z,68.80
2018-07-19T03:02:40.776Z,70.10
2018-07-19T03:05:10.470Z,69.50
2018-07-19T03:07:39.319Z,69.60
2018-07-19T03:12:36.484Z,69.30
2018-07-19T03:17:33.426Z,71.10
2018-07-19T03:20:02.186Z,70.10
2018-07-19T03:22:30.898Z,70.80
2018-07-19T03:24:59.711Z,72.10
2018-07-19T03:29:56.861Z,70.60
2018-07-19T03:32:25.456Z,70.30
2018-07-19T03:34:54.244Z,69.70
2018-07-19T03:37:22.868Z,70.90
2018-07-19T03:39:53.847Z,70.90
2018-07-19T03:42:22.541Z,71.10
2018-07-19T03:44:52.686Z,70.50
2018-07-19T03:47:21.290Z,70.20
2018-07-19T03:49:50.370Z,70.20
2018-07-19T03:52:19.227Z,70.00
2018-07-19T03:54:47.915Z,69.70
2018-07-19T03:57:18.344Z,69.40
2018-07-19T03:59:47.083Z,69.50
2018-07-19T04:04:44.288Z,69.20
2018-07-19T04:07:12.978Z,68.80
2018-07-19T04:09:41.688Z,69.10
2018-07-19T04:12:10.493Z,68.90
2018-07-19T04:14:39.203Z,69.40
2018-07-19T04:22:04.925Z,67.80
2018-07-19T04:24:33.868Z,68.80
2018-07-19T04:27:03.115Z,69.20
2018-07-19T04:29:31.930Z,68.60
2018-07-19T04:34:28.907Z,69.30
2018-07-19T04:36:57.628Z,68.20
2018-07-19T04:39:26.274Z,68.30
2018-07-19T04:41:54.992Z,68.00
2018-07-19T04:49:27.576Z,67.70
2018-07-19T04:51:56.405Z,67.60
2018-07-19T04:54:26.316Z,67.30
2018-07-19T04:56:55.115Z,67.10
2018-07-19T04:59:24.029Z,66.90
2018-07-19T05:01:53.080Z,66.70
2018-07-19T05:04:21.620Z,66.00
2018-07-19T05:06:50.312Z,65.40
2018-07-19T05:09:18.996Z,66.50
2018-07-19T05:11:47.743Z,65.40
2018-07-19T05:14:18.094Z,64.80
2018-07-19T05:16:46.974Z,64.80
2018-07-19T05:19:15.772Z,64.30
2018-07-19T05:21:44.553Z,64.00
2018-07-19T05:24:13.337Z,63.20
2018-07-19T05:26:42.114Z,62.90
2018-07-19T05:29:10.941Z,62.80
2018-07-19T05:31:39.691Z,63.00
2018-07-19T05:39:07.875Z,61.60
2018-07-19T05:41:36.618Z,61.40
2018-07-19T05:44:05.439Z,61.60
2018-07-19T05:46:34.200Z,61.30
2018-07-19T05:49:02.962Z,60.20
2018-07-19T05:51:31.640Z,59.60
2018-07-19T05:54:02.188Z,59.40
2018-07-19T05:56:30.782Z,59.90
2018-07-19T05:58:59.588Z,59.70
2018-07-19T06:03:57.398Z,59.80
2018-07-19T06:06:26.217Z,60.50
2018-07-19T06:08:54.935Z,60.90
2018-07-19T06:13:51.873Z,60.10
2018-07-19T06:16:20.576Z,61.10
2018-07-19T06:23:47.773Z,59.90
2018-07-19T06:26:16.859Z,60.00
2018-07-19T06:28:45.728Z,59.90
2018-07-19T06:31:14.414Z,59.50
2018-07-19T06:33:43.684Z,59.50
2018-07-19T06:36:12.371Z,59.20
2018-07-19T06:38:41.126Z,59.40
2018-07-19T06:41:14.387Z,57.90
2018-07-19T06:46:15.792Z,58.20
2018-07-19T06:48:44.630Z,58.00
2018-07-19T06:51:13.399Z,58.30
2018-07-19T06:53:42.169Z,58.10
2018-07-19T06:56:12.399Z,57.50
2018-07-19T06:58:41.539Z,57.60
2018-07-19T07:01:10.365Z,57.50
2018-07-19T07:03:39.108Z,57.60
2018-07-19T07:06:07.871Z,57.10
2018-07-19T07:08:37.925Z,56.80
2018-07-19T07:11:06.828Z,56.20
2018-07-19T07:13:35.940Z,55.90
2018-07-19T07:16:05.610Z,54.80
2018-07-19T07:18:34.294Z,54.40
2018-07-19T07:21:03.285Z,52.70
2018-07-19T07:23:32.018Z,52.20
2018-07-19T07:26:00.928Z,52.20
2018-07-19T07:28:29.801Z,51.30
2018-07-19T07:30:58.724Z,51.50
2018-07-19T07:33:29.090Z,51.30
2018-07-19T07:35:58.133Z,50.80
2018-07-19T07:38:27.467Z,50.10
2018-07-19T07:40:56.168Z,50.60
2018-07-19T07:43:24.850Z,49.70
2018-07-19T07:48:22.079Z,49.20
2018-07-19T07:50:50.865Z,49.10
2018-07-19T07:53:19.670Z,48.30
2018-07-19T07:55:48.499Z,47.30
2018-07-19T07:58:17.297Z,47.10
2018-07-19T08:00:46.227Z,47.10
2018-07-19T08:03:15.011Z,46.50
2018-07-19T08:05:43.834Z,46.20
2018-07-19T08:08:12.777Z,46.20
2018-07-19T08:10:41.682Z,45.60
2018-07-19T08:13:10.792Z,45.80
2018-07-19T08:15:39.500Z,44.30
2018-07-19T08:18:08.289Z,44.40
2018-07-19T08:20:37.674Z,43.60
2018-07-19T08:23:06.901Z,43.20
2018-07-19T08:25:38.290Z,43.40
2018-07-19T08:28:07.017Z,42.60
2018-07-19T08:30:35.844Z,41.90
2018-07-19T08:33:04.838Z,43.00
2018-07-19T08:38:02.482Z,41.70
2018-07-19T08:40:31.339Z,42.60
2018-07-19T08:43:00.079Z,42.50
2018-07-19T08:45:29.275Z,42.70
2018-07-19T08:47:58.181Z,42.50
2018-07-19T08:52:56.391Z,42.20
2018-07-19T08:55:25.119Z,41.80
2018-07-19T08:57:56.003Z,42.00
2018-07-19T09:00:26.891Z,42.30
2018-07-19T09:03:00.281Z,41.10
2018-07-19T09:05:29.551Z,40.90
2018-07-19T09:10:28.104Z,41.20
2018-07-19T09:12:57.864Z,41.50
2018-07-19T09:18:00.133Z,40.60
2018-07-19T09:20:32.755Z,39.70
2018-07-19T09:23:06.914Z,39.50
2018-07-19T09:28:04.706Z,40.20
2018-07-19T09:30:33.514Z,39.60
2018-07-19T09:33:02.226Z,40.10
2018-07-19T09:37:59.427Z,40.40
2018-07-19T09:40:28.060Z,39.80
2018-07-19T09:43:05.558Z,40.10
2018-07-19T09:45:42.322Z,40.00
2018-07-19T09:48:21.241Z,39.40
2018-07-19T09:50:55.471Z,39.70
2018-07-19T09:53:25.231Z,39.40
2018-07-19T10:00:56.012Z,39.30
2018-07-19T10:03:24.729Z,37.30
2018-07-19T10:05:53.745Z,37.10
2018-07-19T10:08:22.543Z,36.60
2018-07-19T10:10:51.361Z,36.70
2018-07-19T10:17:26.055Z,35.50
2018-07-19T10:19:54.707Z,36.00
2018-07-19T10:22:23.374Z,35.80
2018-07-19T10:24:52.211Z,35.10
2018-07-19T10:27:21.019Z,33.20
2018-07-19T10:29:49.781Z,33.00
2018-07-19T10:32:18.764Z,32.60
2018-07-19T10:34:47.508Z,31.50
2018-07-19T10:37:16.650Z,31.60
2018-07-19T10:39:45.715Z,31.50
2018-07-19T10:42:14.783Z,31.80
2018-07-19T10:47:12.182Z,30.40
2018-07-19T10:49:41.101Z,29.30
2018-07-19T10:52:09.864Z,28.20
2018-07-19T10:54:38.615Z,26.80
2018-07-19T11:02:07.260Z,25.90
2018-07-19T11:04:36.039Z,25.40
2018-07-19T11:07:05.160Z,25.50
2018-07-19T11:09:34.102Z,25.40
2018-07-19T11:12:03.210Z,25.60
2018-07-19T11:14:33.245Z,25.60
2018-07-19T11:17:01.946Z,25.80
2018-07-19T11:19:45.673Z,24.60
2018-07-19T11:22:14.465Z,25.20
2018-07-19T11:24:45.368Z,25.10
2018-07-19T11:27:14.155Z,25.20
2018-07-19T11:29:42.883Z,25.00
2018-07-19T11:32:11.820Z,24.90
2018-07-19T11:34:42.491Z,23.90
2018-07-19T11:37:11.594Z,23.80
2018-07-19T11:39:40.359Z,23.80
2018-07-19T11:42:09.168Z,23.60
2018-07-19T11:44:38.575Z,23.70
2018-07-19T11:47:07.267Z,22.80
2018-07-19T11:49:42.239Z,23.40
2018-07-19T11:52:19.656Z,24.10
2018-07-19T11:54:48.861Z,23.20
2018-07-19T11:57:17.729Z,23.20
2018-07-19T11:59:46.418Z,22.80
2018-07-19T12:02:15.196Z,22.30
2018-07-19T12:04:43.997Z,23.10
2018-07-19T12:07:13.800Z,23.50
2018-07-19T12:09:42.595Z,23.40
2018-07-19T12:12:11.847Z,23.10
2018-07-19T12:14:43.961Z,23.30
2018-07-19T12:17:13.060Z,23.80
2018-07-19T12:19:42.092Z,24.00
2018-07-19T12:22:11.013Z,24.40
2018-07-19T12:24:40.000Z,24.90
2018-07-19T12:27:08.878Z,24.50
2018-07-19T12:29:37.752Z,24.40
2018-07-19T12:32:06.730Z,23.80
2018-07-19T12:34:37.646Z,23.50
2018-07-19T12:37:06.459Z,23.30
2018-07-19T12:39:35.248Z,22.80
2018-07-19T12:42:04.249Z,22.70
2018-07-19T12:44:32.993Z,22.30
2018-07-19T12:47:01.754Z,22.70
2018-07-19T12:49:35.247Z,22.20
2018-07-19T12:52:08.174Z,22.30
2018-07-19T12:54:38.138Z,21.70
2018-07-19T12:57:07.255Z,22.00
2018-07-19T12:59:36.263Z,22.00
2018-07-19T13:02:05.205Z,22.20
2018-07-19T13:04:33.926Z,22.30
2018-07-19T13:07:02.933Z,21.90
2018-07-19T13:09:32.197Z,21.60
2018-07-19T13:12:01.107Z,21.40
2018-07-19T13:14:30.213Z,21.30
2018-07-19T13:16:59.185Z,21.80
2018-07-19T13:19:30.611Z,21.30
2018-07-19T13:21:59.418Z,21.30
2018-07-19T13:24:30.328Z,20.90
2018-07-19T13:26:59.412Z,20.50
2018-07-19T13:29:28.135Z,21.20
2018-07-19T13:31:59.991Z,21.30
2018-07-19T13:34:32.939Z,21.70
2018-07-19T13:37:06.055Z,22.00
2018-07-19T13:39:34.967Z,21.60
2018-07-19T13:42:06.223Z,21.60
2018-07-19T13:44:35.582Z,22.10
2018-07-19T13:47:04.278Z,21.70
2018-07-19T13:49:33.086Z,21.70
2018-07-19T13:52:01.931Z,21.40
2018-07-19T13:54:37.567Z,20.80
2018-07-19T13:57:06.792Z,20.30
2018-07-19T13:59:35.539Z,19.40
2018-07-19T14:02:04.284Z,19.10
2018-07-19T14:04:33.189Z,19.70
2018-07-19T14:07:01.958Z,20.10
2018-07-19T14:09:30.662Z,20.20
2018-07-19T14:12:04.599Z,19.60
2018-07-19T14:14:39.431Z,20.00
2018-07-19T14:17:39.280Z,20.30
2018-07-19T14:20:08.032Z,20.00
2018-07-19T14:22:38.069Z,20.50
2018-07-19T14:25:06.696Z,20.40
2018-07-19T14:27:35.475Z,19.80
2018-07-19T14:30:06.310Z,19.60
2018-07-19T14:32:36.821Z,19.50
2018-07-19T14:35:05.775Z,20.10
2018-07-19T14:37:35.398Z,20.30
2018-07-19T14:40:04.190Z,21.20
2018-07-19T14:42:33.417Z,20.80
2018-07-19T14:45:02.274Z,20.80
2018-07-19T14:47:30.983Z,20.60
2018-07-19T14:49:59.657Z,20.80
2018-07-19T14:52:28.380Z,20.30
2018-07-19T14:54:57.041Z,19.70
2018-07-19T14:57:25.763Z,20.00
2018-07-19T14:59:54.523Z,20.00
2018-07-19T15:02:23.219Z,20.50
2018-07-19T15:04:51.930Z,20.20
2018-07-19T15:07:20.628Z,20.10
2018-07-19T15:09:49.425Z,19.90
2018-07-19T15:12:18.195Z,19.70
2018-07-19T15:14:46.884Z,19.50
2018-07-19T15:17:18.702Z,19.00
2018-07-19T15:19:47.361Z,19.30
2018-07-19T15:22:16.196Z,19.30
2018-07-19T15:24:45.346Z,19.20
2018-07-19T15:27:14.502Z,19.00
2018-07-19T15:29:43.383Z,19.00
2018-07-19T15:32:12.167Z,19.50
2018-07-19T15:34:40.865Z,19.80
2018-07-19T15:37:10.029Z,20.40
2018-07-19T15:39:38.769Z,21.60
2018-07-19T15:42:08.173Z,22.60
2018-07-19T15:44:37.170Z,23.60
2018-07-19T15:47:06.006Z,23.90
2018-07-19T15:49:34.675Z,24.40
2018-07-19T15:52:03.738Z,24.80
2018-07-19T15:54:33.801Z,24.70
2018-07-19T15:57:02.548Z,24.70
2018-07-19T15:59:31.547Z,25.00
2018-07-19T16:02:00.358Z,25.10
2018-07-19T16:04:29.098Z,24.80
2018-07-19T16:06:57.995Z,25.30
2018-07-19T16:09:26.833Z,24.90
2018-07-19T16:11:55.549Z,24.50
2018-07-19T16:14:24.418Z,24.90
2018-07-19T16:16:53.208Z,24.90
2018-07-19T16:19:21.885Z,25.00
2018-07-19T16:21:50.752Z,25.00
2018-07-19T16:24:20.173Z,25.10
2018-07-19T16:26:49.043Z,25.30
2018-07-19T16:29:17.646Z,25.50
2018-07-19T16:31:46.461Z,25.40
2018-07-19T16:34:16.050Z,25.50
2018-07-19T16:36:44.841Z,25.40
2018-07-19T16:39:13.619Z,25.40
2018-07-19T16:41:42.382Z,25.60
2018-07-19T16:44:11.138Z,25.70
2018-07-19T16:46:39.865Z,25.90
2018-07-19T16:49:17.996Z,25.80
2018-07-19T16:51:51.974Z,25.80
2018-07-19T16:54:22.509Z,26.20
2018-07-19T16:56:51.238Z,25.90
2018-07-19T16:59:24.433Z,25.90
2018-07-19T17:01:53.517Z,25.90
2018-07-19T17:04:22.329Z,26.20
2018-07-19T17:06:51.018Z,26.20
2018-07-19T17:09:19.705Z,26.90
2018-07-19T17:11:48.385Z,26.10
2018-07-19T17:14:17.052Z,26.30
2018-07-19T17:16:45.775Z,25.40
2018-07-19T17:19:15.720Z,26.20
2018-07-19T17:21:44.487Z,25.80
2018-07-19T17:24:13.278Z,26.20
2018-07-19T17:26:42.095Z,26.30
2018-07-19T17:29:11.001Z,26.50
2018-07-19T17:31:39.630Z,26.80
2018-07-19T17:34:08.503Z,26.80
2018-07-19T17:36:37.226Z,26.80
2018-07-19T17:39:08.732Z,27.00
2018-07-19T17:41:37.567Z,27.00
2018-07-19T17:44:06.336Z,27.10
2018-07-19T17:46:35.004Z,27.30
2018-07-19T17:49:03.771Z,27.40
2018-07-19T17:51:32.602Z,27.30
2018-07-19T17:54:03.393Z,27.20
2018-07-19T17:56:32.198Z,27.30
2018-07-19T17:59:00.995Z,27.30
2018-07-19T18:01:29.662Z,27.50
2018-07-19T18:03:58.416Z,27.50
2018-07-19T18:06:27.290Z,27.60
2018-07-19T18:08:56.086Z,27.70
2018-07-19T18:11:24.772Z,28.10
2018-07-19T18:13:53.657Z,28.40
2018-07-19T18:16:22.614Z,28.70
2018-07-19T18:18:51.442Z,28.90
2018-07-19T18:21:28.054Z,29.00
2018-07-19T18:23:57.300Z,29.20
2018-07-19T18:26:25.995Z,29.40
2018-07-19T18:28:54.710Z,29.40
2018-07-19T18:31:23.527Z,29.40
2018-07-19T18:33:52.317Z,29.50
2018-07-19T18:36:21.024Z,29.50
2018-07-19T18:38:49.734Z,29.70
2018-07-19T18:41:18.578Z,29.80
2018-07-19T18:43:47.369Z,30.00
2018-07-19T18:46:16.373Z,30.20
2018-07-19T18:48:45.138Z,30.30
2018-07-19T18:51:14.008Z,30.50
2018-07-19T18:53:42.718Z,30.60
2018-07-19T18:56:12.130Z,30.80
2018-07-19T18:58:40.790Z,30.90
2018-07-19T19:01:09.941Z,31.00
2018-07-19T19:03:38.599Z,31.30
2018-07-19T19:06:07.649Z,31.90
2018-07-19T19:08:36.409Z,32.20
2018-07-19T19:11:05.261Z,32.20
2018-07-19T19:13:34.797Z,32.40
2018-07-19T19:16:03.564Z,32.50
2018-07-19T19:18:42.175Z,32.40
2018-07-19T19:21:20.733Z,32.80
2018-07-19T19:23:59.127Z,33.20
2018-07-19T19:26:28.773Z,33.90
2018-07-19T19:28:57.443Z,34.80
2018-07-19T19:31:26.368Z,35.40
2018-07-19T19:33:55.210Z,36.30
2018-07-19T19:36:24.706Z,37.00
2018-07-19T19:38:53.564Z,36.70
2018-07-19T19:41:22.474Z,36.40
2018-07-19T19:43:51.696Z,36.10
2018-07-19T19:46:20.968Z,36.70
2018-07-19T19:48:49.905Z,36.90
2018-07-19T19:51:18.681Z,37.30
2018-07-19T19:53:47.436Z,37.40
2018-07-19T19:56:16.163Z,37.10
2018-07-19T19:58:44.887Z,37.50
2018-07-19T20:01:13.713Z,37.90
2018-07-19T20:03:42.403Z,38.30
2018-07-19T20:06:11.267Z,38.90
2018-07-19T20:08:40.144Z,39.60
2018-07-19T20:11:09.242Z,39.50
2018-07-19T20:13:38.075Z,40.00
2018-07-19T20:16:06.812Z,40.40
2018-07-19T20:18:35.504Z,41.10
2018-07-19T20:21:05.169Z,41.50
2018-07-19T20:23:33.883Z,40.80
2018-07-19T20:26:02.632Z,40.70
2018-07-19T20:28:31.513Z,40.60
2018-07-19T20:31:00.214Z,40.70
2018-07-19T20:33:28.906Z,40.00
2018-07-19T20:35:57.581Z,40.10
2018-07-19T20:38:27.090Z,39.30
2018-07-19T20:40:55.809Z,39.90
2018-07-19T20:43:25.129Z,38.50
2018-07-19T20:45:53.841Z,40.50
2018-07-19T20:48:22.527Z,41.10
2018-07-19T20:50:51.342Z,41.50
2018-07-19T20:53:20.234Z,41.90
2018-07-19T20:55:49.168Z,41.40
2018-07-19T20:58:17.947Z,42.30
2018-07-19T21:00:46.717Z,42.60
2018-07-19T21:03:15.386Z,42.50
2018-07-19T21:05:44.074Z,42.50
2018-07-19T21:08:12.834Z,42.70
2018-07-19T21:10:41.458Z,42.60
2018-07-19T21:13:10.159Z,42.80
2018-07-19T21:15:38.940Z,42.80
2018-07-19T21:18:07.760Z,43.10
2018-07-19T21:20:36.415Z,43.10
2018-07-19T21:23:05.081Z,43.20
2018-07-19T21:25:33.727Z,43.20
2018-07-19T21:28:02.509Z,43.40
2018-07-19T21:30:31.856Z,43.70
2018-07-19T21:33:00.994Z,44.10
2018-07-19T21:35:29.816Z,44.00
2018-07-19T21:37:58.692Z,44.20
2018-07-19T21:40:27.344Z,45.10
2018-07-19T21:42:56.040Z,44.30
2018-07-19T21:45:24.711Z,45.10
2018-07-19T21:47:53.274Z,44.60
2018-07-19T21:50:22.121Z,45.10
2018-07-19T21:52:52.071Z,45.40
2018-07-19T21:55:21.118Z,45.80
2018-07-19T21:57:50.000Z,46.50
2018-07-19T22:00:18.722Z,46.80
2018-07-19T22:02:47.459Z,46.80
2018-07-19T22:05:16.208Z,46.70
2018-07-19T22:07:45.029Z,46.90
2018-07-19T22:10:13.788Z,47.30
2018-07-19T22:12:43.626Z,47.60
2018-07-19T22:15:12.338Z,47.80
2018-07-19T22:17:41.031Z,48.50
2018-07-19T22:20:09.880Z,48.80
2018-07-19T22:22:38.521Z,48.90
2018-07-19T22:25:08.139Z,48.70
2018-07-19T22:27:36.803Z,48.60
2018-07-19T22:30:05.680Z,48.10
2018-07-19T22:32:34.367Z,47.70
2018-07-19T22:35:03.223Z,47.80
2018-07-19T22:37:34.340Z,47.70
2018-07-19T22:40:03.057Z,47.20
2018-07-19T22:42:31.745Z,47.30
2018-07-19T22:45:00.445Z,47.70
2018-07-19T22:47:29.090Z,47.50
2018-07-19T22:49:59.913Z,46.90
2018-07-19T22:52:28.718Z,46.80
2018-07-19T22:54:58.499Z,49.30
2018-07-19T22:57:27.182Z,49.70
2018-07-19T22:59:55.919Z,50.30
2018-07-19T23:02:25.009Z,50.90
2018-07-19T23:04:53.698Z,51.50
2018-07-19T23:07:22.526Z,51.70
2018-07-19T23:09:51.243Z,52.10
2018-07-19T23:12:19.943Z,52.00
2018-07-19T23:14:48.745Z,52.20
2018-07-19T23:17:18.024Z,52.30
2018-07-19T23:19:46.754Z,52.10
2018-07-19T23:22:15.494Z,51.80
2018-07-19T23:24:44.180Z,51.80
2018-07-19T23:27:13.060Z,52.00
2018-07-19T23:29:41.822Z,51.20
2018-07-19T23:32:10.487Z,51.20
2018-07-19T23:34:39.536Z,51.40
2018-07-19T23:37:14.239Z,51.70
2018-07-19T23:39:52.187Z,52.00
2018-07-19T23:42:24.974Z,52.40
2018-07-19T23:45:00.679Z,51.60
2018-07-19T23:47:32.898Z,51.80
2018-07-19T23:50:01.718Z,52.10
2018-07-19T23:52:30.314Z,53.00
2018-07-19T23:54:59.109Z,53.90
2018-07-19T23:57:27.805Z,53.40
2018-07-19T23:59:56.466Z,53.40
